Flight Track Log - Related Links

Times and Time Zones

All times are in EDT time to prevent confusion due to time zone crossing. See the AVA28 flight status page for this flight to view local times or setup timezone preferences in your user account.

Time Position Orientation Groundspeed Altitude Reporting Facility
EDT Latitude Longitude Course Direction KTS MPH feet Rate Location/Type
Sat 02:04:00 PM 28.4294 -81.3090 345° North  Level Estimated
Sat 02:05:00 PM 28.4294 -81.3090 323° Northwest  Level Estimated
Sat 02:05:42 PM 23.2539 -78.8714 323° Northwest 457 526 36,000  Level Miami Center
Sat 02:06:00 PM 28.4294 -81.3090 323° Northwest  Level Estimated
Sat 02:06:42 PM 23.3911 -78.9144 344° North 477 549 36,000  Level Miami Center
Sat 02:07:00 PM 28.4294 -81.3090 323° Northwest  Level Estimated
Sat 02:07:42 PM 23.5100 -78.9433 347° North 461 531 36,000  Level Miami Center
Sat 02:08:00 PM 28.4294 -81.3090 323° Northwest  Level Estimated
Sat 02:08:42 PM 23.6306 -78.9772 346° North 442 509 36,000  Level Miami Center
Sat 02:09:00 PM 28.4294 -81.3090 323° Northwest  Level Estimated
Sat 02:09:42 PM 23.7536 -79.0086 347° North 442 509 36,000  Level Miami Center
Sat 02:10:00 PM 28.4294 -81.3090 323° Northwest  Level Estimated
Sat 02:10:42 PM 23.8742 -79.0381 347° North 447 514 36,000  Level Miami Center
Sat 02:11:00 PM 28.4294 -81.3090 323° Northwest  Level Estimated
Sat 02:11:42 PM 23.9886 -79.0742 344° North 442 509 36,000  Level Miami Center
Sat 02:12:42 PM 24.1006 -79.1331 334° Northwest 469 540 36,000  Level Miami Center
Sat 02:13:42 PM 24.2125 -79.1919 334° Northwest 451 519 36,000  Level Miami Center
Sat 02:14:42 PM 24.3267 -79.2489 336° Northwest 451 519 36,000  Level Miami Center
Sat 02:15:42 PM 24.4383 -79.3081 334° Northwest 440 506 36,000  Level Miami Center
Sat 02:16:42 PM 24.5503 -79.3650 335° Northwest 440 506 36,000  Level Miami Center
Sat 02:17:42 PM 24.6600 -79.4197 336° Northwest 440 506 36,000 -50 Level Miami Center
Sat 02:18:42 PM 24.7697 -79.4794 334° Northwest 440 506 35,900 -50 Descending Miami Center
Sat 02:19:42 PM 24.8817 -79.5367 335° Northwest 440 506 35,900 50 Level Miami Center
Sat 02:20:42 PM 24.9914 -79.5939 335° Northwest 440 506 36,000 50 Climbing Miami Center
Sat 02:21:42 PM 25.1031 -79.6539 334° Northwest 440 506 36,000  Level Miami Center
Sat 02:22:42 PM 25.2189 -79.7139 335° Northwest 440 506 36,000  Level Miami Center
Sat 02:23:42 PM 25.3306 -79.7717 335° Northwest 440 506 36,000 -50 Level Miami Center
Sat 02:24:42 PM 25.4400 -79.8319 334° Northwest 440 506 35,900  Descending Miami Center
Sat 02:25:42 PM 25.5539 -79.8875 336° Northwest 440 506 36,000 50 Climbing Miami Center
Sat 02:26:42 PM 25.6633 -79.9481 333° Northwest 440 506 36,000 -200 Level Miami Center
Sat 02:27:42 PM 25.7750 -80.0039 336° Northwest 440 506 35,600 -800 Descending Miami Center
Sat 02:28:42 PM 25.8844 -80.0622 334° Northwest 440 506 34,400 -1,800 Descending Miami Center
Sat 02:29:42 PM 25.9875 -80.1203 333° Northwest 435 501 32,000 -2,200 Descending Miami Center
Sat 02:30:42 PM 26.0928 -80.1742 335° Northwest 425 489 30,000 -1,000 Descending Miami Center
Sat 02:31:42 PM 26.1942 -80.2256 336° Northwest 424 488 30,000 -150 Level Miami Center
Sat 02:32:42 PM 26.3097 -80.2867 335° Northwest 424 488 29,700 -550 Descending Miami Center
Sat 02:33:42 PM 26.4025 -80.3311 337° Northwest 419 482 28,900 -950 Descending Miami Center
Sat 02:34:42 PM 26.5161 -80.3881 336° Northwest 406 467 27,800 -1,000 Descending Miami Center
Sat 02:35:42 PM 26.6067 -80.4347 335° Northwest 396 456 26,900 -950 Descending Miami Center
Sat 02:36:42 PM 26.7161 -80.4892 336° Northwest 396 456 25,900 -1,000 Descending Miami Center
Sat 02:37:42 PM 26.8131 -80.5411 334° Northwest 391 450 24,900 -1,000 Descending Miami Center
Sat 02:38:42 PM 26.9119 -80.5908 336° Northwest 391 450 23,900 -1,000 Descending Miami Center
Sat 02:39:42 PM 27.0067 -80.6383 336° Northwest 385 443 22,900 -1,050 Descending Miami Center
Sat 02:40:42 PM 27.0994 -80.6856 336° Northwest 373 429 21,800 -1,450 Descending Miami Center
Sat 02:41:42 PM 27.1900 -80.7328 335° Northwest 368 423 20,000 -1,700 Descending Miami Center
Sat 02:42:42 PM 27.2644 -80.7681 337° Northwest 363 418 18,400 -1,550 Descending Miami Center
Sat 02:43:42 PM 27.3733 -80.8233 336° Northwest 357 411 16,900 -1,200 Descending Miami Center
Sat 02:44:42 PM 27.4558 -80.8658 335° Northwest 346 398 16,000 -1,000 Descending Miami Center
Sat 02:45:42 PM 27.5422 -80.9086 336° Northwest 335 386 14,900 -950 Descending Miami Center
Sat 02:46:42 PM 27.6286 -80.9517 336° Northwest 341 392 14,100 -800 Descending Miami Center
Sat 02:47:42 PM 27.7150 -80.9969 335° Northwest 341 392 13,300 -826 Descending Miami Center
Sat 02:49:29 PM 27.8667 -81.0667 338° Northwest 330 380 11,800 -790 Descending Orlando TRACON
Sat 02:50:29 PM 27.9500 -81.1167 332° Northwest 328 377 11,100 -400 Descending Orlando TRACON
Sat 02:51:29 PM 28.0333 -81.1500 341° North 293 337 11,000 -714 Descending Orlando TRACON
Sat 02:52:35 PM 28.1167 -81.1667 350° North 293 337 9,600 -952 Descending Orlando TRACON
Sat 02:53:35 PM 28.2000 -81.2000 341° North 292 336 9,000 -300 Descending Orlando TRACON
Sat 02:54:35 PM 28.2667 -81.1833 12° North 297 342 9,000  Level Orlando TRACON
Sat 02:55:35 PM 28.3500 -81.1833 360° North 252 290 9,000 -450 Level Orlando TRACON
Sat 02:56:35 PM 28.4167 -81.1833 360° North 250 288 8,100 -1,150 Descending Orlando TRACON
Sat 02:57:35 PM 28.4833 -81.1833 360° North 244 281 6,700 -1,289 Descending Orlando TRACON
Sat 02:58:36 PM 28.5500 -81.1833 360° North 247 284 5,500 -1,100 Descending Orlando TRACON
Sat 02:59:35 PM 28.6167 -81.2000 348° North 231 266 4,500 -900 Descending Orlando TRACON
Sat 03:00:36 PM 28.6167 -81.2500 270° West 183 211 3,700 -952 Descending Orlando TRACON
Sat 03:01:41 PM 28.5833 -81.2833 221° Southwest 182 209 2,500 -952 Descending Orlando TRACON
Sat 03:02:42 PM 28.5333 -81.2833 180° South 178 205 1,700 -694 Descending Orlando TRACON
Sat 03:03:42 PM 28.4833 -81.2833 180° South 152 175 1,100 -600 Descending Orlando TRACON

Login

Don't have an account? Register now (free) for customized features, flight alerts, and more!